createdAt,value
2023-03-12T00:02:39.294Z,95316.81
2023-03-12T00:07:40.847Z,95339.53
2023-03-12T00:12:42.321Z,95342.88
2023-03-12T00:17:43.804Z,95341.22
2023-03-12T00:22:45.561Z,95331.09
2023-03-12T00:27:47.123Z,95334.31
2023-03-12T00:32:48.692Z,95333.94
2023-03-12T00:37:50.213Z,95330.50
2023-03-12T00:42:51.680Z,95337.16
2023-03-12T00:47:53.423Z,95336.44
2023-03-12T00:52:55.042Z,95335.63
2023-03-12T00:57:56.520Z,95338.09
2023-03-12T01:02:58.141Z,95346.16
2023-03-12T01:07:59.712Z,95343.59
2023-03-12T01:13:01.243Z,95342.03
2023-03-12T01:18:02.778Z,95346.81
2023-03-12T01:23:04.401Z,95335.97
2023-03-12T01:28:06.175Z,95343.97
2023-03-12T01:33:07.692Z,95347.06
2023-03-12T01:38:13.418Z,95346.22
2023-03-12T01:43:23.211Z,95355.63
2023-03-12T01:48:25.483Z,95348.47
2023-03-12T01:53:28.490Z,95349.91
2023-03-12T01:58:34.228Z,95347.19
2023-03-12T02:03:37.007Z,95345.00
2023-03-12T02:08:43.931Z,95344.38
2023-03-12T02:13:46.551Z,95341.19
2023-03-12T02:18:50.660Z,95344.31
2023-03-12T02:24:06.831Z,95346.09
2023-03-12T02:29:10.979Z,95350.88
2023-03-12T02:34:12.632Z,95349.56
2023-03-12T02:39:14.353Z,95348.13
2023-03-12T02:44:26.764Z,95344.78
2023-03-12T02:49:31.417Z,95349.56
2023-03-12T02:54:34.022Z,95359.91
2023-03-12T02:59:35.748Z,95360.50
2023-03-12T03:04:39.167Z,95359.09
2023-03-12T03:09:40.905Z,95373.22
2023-03-12T03:14:42.855Z,95366.81
2023-03-12T03:19:44.494Z,95361.22
2023-03-12T03:24:46.136Z,95373.84
2023-03-12T03:29:47.672Z,95367.91
2023-03-12T03:34:49.885Z,95357.53
2023-03-12T03:39:52.308Z,95355.13
2023-03-12T03:44:53.898Z,95365.72
2023-03-12T03:49:55.583Z,95363.06
2023-03-12T03:54:57.167Z,95371.09
2023-03-12T04:00:03.088Z,95355.25
2023-03-12T04:05:15.264Z,95353.81
2023-03-12T04:10:19.187Z,95342.28
2023-03-12T04:15:20.817Z,95341.22
2023-03-12T04:20:23.684Z,95329.41
2023-03-12T04:25:25.317Z,95328.00
2023-03-12T04:30:27.131Z,95306.69
2023-03-12T04:35:28.662Z,95293.09
2023-03-12T04:40:30.524Z,95298.91
2023-03-12T04:45:32.458Z,95317.72
2023-03-12T04:50:34.635Z,95325.44
2023-03-12T04:55:36.207Z,95333.75
2023-03-12T05:00:39.847Z,95329.25
2023-03-12T05:05:41.579Z,95320.88
2023-03-12T05:10:44.035Z,95319.22
2023-03-12T05:15:47.611Z,95306.63
2023-03-12T05:21:03.913Z,95297.16
2023-03-12T05:26:06.769Z,95304.53
2023-03-12T05:31:11.178Z,95298.00
2023-03-12T05:36:15.133Z,95297.16
2023-03-12T05:41:22.274Z,95303.22
2023-03-12T05:46:27.211Z,95305.75
2023-03-12T05:51:29.178Z,95305.72
2023-03-12T05:56:31.018Z,95306.25
2023-03-12T06:01:32.718Z,95299.56
2023-03-12T06:06:37.206Z,95337.50
2023-03-12T06:11:39.358Z,95333.94
2023-03-12T06:16:41.237Z,95339.63
2023-03-12T06:21:43.625Z,95329.16
2023-03-12T06:26:45.978Z,95333.72
2023-03-12T06:31:47.604Z,95332.03
2023-03-12T06:36:49.081Z,95321.59
2023-03-12T06:41:50.616Z,95330.16
2023-03-12T06:46:52.093Z,95338.72
2023-03-12T06:51:53.728Z,95348.47
2023-03-12T06:56:55.264Z,95353.41
2023-03-12T07:01:56.790Z,95362.78
2023-03-12T07:06:58.381Z,95357.41
2023-03-12T07:11:59.918Z,95369.78
2023-03-12T07:17:01.382Z,95377.59
2023-03-12T07:22:02.859Z,95386.69
2023-03-12T07:27:04.324Z,95391.31
2023-03-12T07:32:05.985Z,95396.78
2023-03-12T07:37:07.702Z,95395.09
2023-03-12T07:42:11.012Z,95392.41
2023-03-12T07:47:23.267Z,95399.72
2023-03-12T07:52:25.647Z,95397.66
2023-03-12T07:57:27.381Z,95404.50
2023-03-12T08:02:29.008Z,95405.81
2023-03-12T08:07:31.089Z,95414.69
2023-03-12T08:12:32.985Z,95422.34
2023-03-12T08:17:34.557Z,95422.00
2023-03-12T08:22:37.450Z,95436.22
2023-03-12T08:27:38.988Z,95439.44
2023-03-12T08:32:40.530Z,95433.19
2023-03-12T08:37:42.161Z,95441.78
2023-03-12T08:42:44.984Z,95449.28
2023-03-12T08:47:46.498Z,95447.09
2023-03-12T08:52:48.437Z,95450.69
2023-03-12T08:57:50.010Z,95460.28
2023-03-12T09:02:51.600Z,95461.81
2023-03-12T09:07:53.098Z,95475.25
2023-03-12T09:12:54.625Z,95462.66
2023-03-12T09:17:56.310Z,95460.28
2023-03-12T09:22:57.998Z,95468.06
2023-03-12T09:27:59.423Z,95470.69
2023-03-12T09:33:00.933Z,95475.69
2023-03-12T09:38:03.095Z,95484.13
2023-03-12T09:43:39.373Z,95492.03
2023-03-12T09:48:47.760Z,95494.53
2023-03-12T09:53:58.153Z,95494.94
2023-03-12T09:59:00.612Z,95506.59
2023-03-12T10:04:24.733Z,95501.31
2023-03-12T10:09:42.260Z,95513.56
2023-03-12T10:14:55.584Z,95514.13
2023-03-12T10:20:38.141Z,95516.78
2023-03-12T10:25:44.307Z,95509.69
2023-03-12T10:30:54.725Z,95519.81
2023-03-12T10:35:56.804Z,95514.97
2023-03-12T10:40:58.346Z,95527.59
2023-03-12T10:46:34.707Z,95532.88
2023-03-12T10:51:54.309Z,95526.63
2023-03-12T10:56:55.913Z,95534.28
2023-03-12T11:01:58.344Z,95538.44
2023-03-12T11:07:14.850Z,95536.34
2023-03-12T11:12:28.397Z,95543.00
2023-03-12T11:17:29.951Z,95552.28
2023-03-12T11:22:34.345Z,95553.13
2023-03-12T11:27:37.809Z,95560.78
2023-03-12T11:32:45.926Z,95569.50
2023-03-12T11:38:10.253Z,95582.28
2023-03-12T11:43:43.569Z,95598.22
2023-03-12T11:48:53.922Z,95583.41
2023-03-12T11:54:24.064Z,95593.09
2023-03-12T11:59:45.334Z,95577.97
2023-03-12T12:05:01.860Z,95567.31
2023-03-12T12:10:22.826Z,95565.16
2023-03-12T12:15:26.970Z,95572.28
2023-03-12T12:20:50.554Z,95572.81
2023-03-12T12:26:11.157Z,95570.69
2023-03-12T12:31:37.511Z,95572.59
2023-03-12T12:36:39.103Z,95569.97
2023-03-12T12:41:52.951Z,95566.66
2023-03-12T12:47:00.724Z,95566.91
2023-03-12T12:52:07.361Z,95555.69
2023-03-12T12:57:18.352Z,95566.72
2023-03-12T13:02:22.881Z,95562.16
2023-03-12T13:07:27.125Z,95563.09
2023-03-12T13:12:34.755Z,95554.50
2023-03-12T13:17:56.142Z,95553.19
2023-03-12T13:23:18.983Z,95558.31
2023-03-12T13:28:26.224Z,95570.19
2023-03-12T13:33:45.581Z,95563.97
2023-03-12T13:39:07.077Z,95559.38
2023-03-12T13:44:23.759Z,95568.63
2023-03-12T13:49:26.941Z,95566.56
2023-03-12T13:54:33.174Z,95568.75
2023-03-12T13:59:34.782Z,95572.16
2023-03-12T14:04:40.375Z,95550.34
2023-03-12T14:10:03.394Z,95558.41
2023-03-12T14:15:23.186Z,95563.34
2023-03-12T14:20:24.877Z,95562.69
2023-03-12T14:25:31.552Z,95561.81
2023-03-12T14:30:44.944Z,95551.16
2023-03-12T14:36:12.169Z,95532.41
2023-03-12T14:41:24.259Z,95537.50
2023-03-12T14:46:25.778Z,95525.00
2023-03-12T14:51:30.067Z,95527.06
2023-03-12T14:56:33.332Z,95512.38
2023-03-12T15:01:35.306Z,95497.69
2023-03-12T15:06:58.909Z,95506.75
2023-03-12T15:12:17.398Z,95497.44
2023-03-12T15:17:20.961Z,95493.34
2023-03-12T15:22:25.034Z,95496.09
2023-03-12T15:27:26.432Z,95504.75
2023-03-12T15:32:28.822Z,95493.19
2023-03-12T15:37:36.455Z,95508.66
2023-03-12T15:42:42.672Z,95518.06
2023-03-12T15:47:45.360Z,95500.41
2023-03-12T15:53:26.447Z,95508.94
2023-03-12T15:58:30.929Z,95497.13
2023-03-12T16:03:32.422Z,95503.44
2023-03-12T16:08:44.129Z,95510.59
2023-03-12T16:13:48.353Z,95515.53
2023-03-12T16:18:49.817Z,95523.84
2023-03-12T16:23:51.658Z,95531.75
2023-03-12T16:28:53.180Z,95529.72
2023-03-12T16:33:54.686Z,95531.38
2023-03-12T16:38:56.815Z,95530.72
2023-03-12T16:43:58.975Z,95541.59
2023-03-12T16:49:00.979Z,95531.53
2023-03-12T16:54:10.741Z,95526.91
2023-03-12T16:59:28.248Z,95527.81
2023-03-12T17:04:29.810Z,95533.25
2023-03-12T17:09:31.332Z,95548.31
2023-03-12T17:14:33.025Z,95547.88
2023-03-12T17:19:34.481Z,95553.75
2023-03-12T17:24:35.991Z,95547.13
2023-03-12T17:29:37.493Z,95557.25
2023-03-12T17:34:38.997Z,95558.97
2023-03-12T17:39:40.683Z,95552.47
2023-03-12T17:44:42.206Z,95565.72
2023-03-12T17:49:43.844Z,95555.09
2023-03-12T17:54:45.305Z,95549.59
2023-03-12T17:59:46.756Z,95557.59
2023-03-12T18:04:48.412Z,95550.59
2023-03-12T18:09:49.918Z,95554.22
2023-03-12T18:14:51.423Z,95550.88
2023-03-12T18:19:52.954Z,95551.41
2023-03-12T18:24:54.581Z,95536.84
2023-03-12T18:29:56.084Z,95542.16
2023-03-12T18:34:57.593Z,95543.84
2023-03-12T18:39:59.177Z,95536.47
2023-03-12T18:45:01.054Z,95537.88
2023-03-12T18:50:02.696Z,95538.03
2023-03-12T18:55:04.986Z,95543.31
2023-03-12T19:00:07.015Z,95547.19
2023-03-12T19:05:09.054Z,95552.47
2023-03-12T19:10:12.094Z,95559.75
2023-03-12T19:15:13.634Z,95574.50
2023-03-12T19:20:15.497Z,95569.50
2023-03-12T19:25:17.157Z,95579.63
2023-03-12T19:30:18.687Z,95584.78
2023-03-12T19:35:20.239Z,95584.50
2023-03-12T19:40:21.844Z,95582.28
2023-03-12T19:45:23.433Z,95582.94
2023-03-12T19:50:24.951Z,95587.13
2023-03-12T19:55:26.446Z,95597.25
2023-03-12T20:00:30.266Z,95584.22
2023-03-12T20:05:31.855Z,95584.63
2023-03-12T20:10:33.364Z,95580.72
2023-03-12T20:15:34.849Z,95580.06
2023-03-12T20:20:36.344Z,95589.88
2023-03-12T20:25:41.420Z,95598.19
2023-03-12T20:30:43.288Z,95604.69
2023-03-12T20:35:44.819Z,95603.84
2023-03-12T20:40:46.426Z,95600.34
2023-03-12T20:45:48.048Z,95595.75
2023-03-12T20:50:50.238Z,95589.69
2023-03-12T20:55:51.764Z,95595.63
2023-03-12T21:00:53.293Z,95603.97
2023-03-12T21:06:01.370Z,95607.44
2023-03-12T21:11:06.816Z,95595.94
2023-03-12T21:16:08.780Z,95591.91
2023-03-12T21:21:10.344Z,95589.50
2023-03-12T21:26:11.900Z,95595.91
2023-03-12T21:31:17.314Z,95603.81
2023-03-12T21:36:18.879Z,95599.38
2023-03-12T21:41:20.989Z,95589.50
2023-03-12T21:46:22.528Z,95601.19
2023-03-12T21:51:24.120Z,95597.03
2023-03-12T21:56:25.622Z,95590.78
2023-03-12T22:01:27.565Z,95579.94
2023-03-12T22:06:29.404Z,95570.25
2023-03-12T22:11:30.868Z,95575.38
2023-03-12T22:16:32.721Z,95563.72
2023-03-12T22:21:34.336Z,95553.88
2023-03-12T22:26:35.792Z,95563.31
2023-03-12T22:31:37.379Z,95561.94
2023-03-12T22:36:39.756Z,95560.69
2023-03-12T22:41:41.208Z,95560.53
2023-03-12T22:46:42.766Z,95554.28
2023-03-12T22:51:44.293Z,95532.28
2023-03-12T22:56:45.822Z,95525.31
2023-03-12T23:01:47.384Z,95516.19
2023-03-12T23:06:49.032Z,95513.81
2023-03-12T23:11:50.512Z,95507.84
2023-03-12T23:16:52.034Z,95504.22
2023-03-12T23:21:53.552Z,95499.25
2023-03-12T23:26:55.094Z,95496.34
2023-03-12T23:31:56.684Z,95500.09
2023-03-12T23:36:58.176Z,95481.22
2023-03-12T23:41:59.710Z,95485.09
2023-03-12T23:47:01.155Z,95482.88
2023-03-12T23:52:02.609Z,95468.03
2023-03-12T23:57:04.174Z,95490.09
